Terminal Aerodrome Forecast
Issued by NWS Nashville, TN

Home | Current Version | Previous Version | Text Only | Print | Product List | Glossary On
Versions: 1 2 3 4 5 6 7 8 9 10 11 12
984
FTUS44 KOHX 290526
TAFCSV
TAF
KCSV 290526Z 2906/3006 00000KT P6SM SKC
     FM291400 18011KT P6SM BKN050
     FM292000 17006KT P6SM SCT050=

USA.gov is the U.S. government's official web portal to all federal, state and local government web resources and services.